Time;durP1;ratioP1;P1;durP2;ratioP2;P2;SDS_P1;SDS_P2;PMS_P1;PMS_P2;Temp;Humidity;BMP_temperature;BMP_pressure;BME280_temperature;BME280_humidity;BME280_pressure;Samples;Min_cycle;Max_cycle;Signal;HPM_P1;HPM_P2
2022/03/04 00:00:16;;;;;;;;;;;16.80;31.50;;;;;;8333673;28;20285;-52
2022/03/04 00:04:16;;;;;;;;;;;16.80;31.50;;;;;;8332117;28;19920;-49
2022/03/04 00:08:17;;;;;;;;;;;16.80;31.40;;;;;;8333208;28;20310;-51
2022/03/04 00:12:19;;;;;;;;;;;16.80;31.50;;;;;;8333256;28;19917;-52
2022/03/04 00:16:20;;;;;;;;;;;16.80;31.40;;;;;;8333236;28;19925;-53
2022/03/04 00:20:20;;;;;;;;;;;16.80;31.40;;;;;;8332650;28;19936;-53
2022/03/04 00:24:22;;;;;;;;;;;16.80;31.40;;;;;;8333024;28;19967;-49
2022/03/04 00:28:22;;;;;;;;;;;16.80;31.40;;;;;;8332996;28;20020;-50
2022/03/04 00:32:22;;;;;;;;;;;16.80;31.40;;;;;;8332057;28;20298;-50
2022/03/04 00:36:23;;;;;;;;;;;16.80;31.40;;;;;;8332315;28;19925;-49
2022/03/04 00:40:24;;;;;;;;;;;16.70;31.40;;;;;;8332322;28;19917;-50
2022/03/04 00:44:25;;;;;;;;;;;16.70;31.40;;;;;;8332109;28;19936;-49
2022/03/04 00:48:25;;;;;;;;;;;16.70;31.30;;;;;;8332048;28;19917;-49
2022/03/04 00:52:26;;;;;;;;;;;16.70;31.40;;;;;;8331533;28;19944;-51
2022/03/04 00:56:26;;;;;;;;;;;16.70;31.40;;;;;;8332052;28;19932;-48
2022/03/04 01:00:27;;;;;;;;;;;16.70;31.30;;;;;;8330721;28;20402;-51
2022/03/04 01:04:27;;;;;;;;;;;16.70;31.40;;;;;;8331365;28;19920;-50
2022/03/04 01:08:28;;;;;;;;;;;16.70;31.30;;;;;;8331551;28;19949;-53
2022/03/04 01:12:28;;;;;;;;;;;16.70;31.40;;;;;;8331243;28;19917;-48
2022/03/04 01:16:28;;;;;;;;;;;16.70;31.30;;;;;;8330632;28;20322;-49
2022/03/04 01:20:30;;;;;;;;;;;16.70;31.30;;;;;;8330909;28;20012;-49
2022/03/04 01:24:31;;;;;;;;;;;16.70;31.30;;;;;;8329882;28;20379;-47
2022/03/04 01:28:31;;;;;;;;;;;16.60;31.30;;;;;;8330646;28;19928;-48
2022/03/04 01:32:32;;;;;;;;;;;16.60;31.30;;;;;;8330904;28;19928;-47
2022/03/04 01:36:33;;;;;;;;;;;16.60;31.30;;;;;;8330975;28;19926;-50
2022/03/04 01:40:34;;;;;;;;;;;16.60;31.30;;;;;;8330218;28;19932;-49
2022/03/04 01:44:34;;;;;;;;;;;16.60;31.30;;;;;;8330824;28;19971;-48
2022/03/04 01:48:35;;;;;;;;;;;16.60;31.30;;;;;;8330753;28;20259;-49
2022/03/04 01:52:36;;;;;;;;;;;16.60;31.30;;;;;;8329883;28;19921;-52
2022/03/04 01:56:36;;;;;;;;;;;16.60;31.30;;;;;;8330487;28;20286;-48
2022/03/04 02:00:37;;;;;;;;;;;16.60;31.30;;;;;;8330356;28;19971;-52
2022/03/04 02:04:37;;;;;;;;;;;16.60;31.30;;;;;;8330179;28;19913;-53
2022/03/04 02:08:38;;;;;;;;;;;16.60;31.30;;;;;;8329081;28;19918;-52
2022/03/04 02:12:39;;;;;;;;;;;16.60;31.30;;;;;;8333240;28;19917;-51
2022/03/04 02:16:47;;;;;;;;;;;16.60;31.30;;;;;;8336366;28;20022;-50
2022/03/04 02:20:49;;;;;;;;;;;16.60;31.30;;;;;;8336949;28;19928;-49
2022/03/04 02:24:50;;;;;;;;;;;16.60;31.30;;;;;;8336730;28;19913;-51
2022/03/04 02:28:50;;;;;;;;;;;16.50;31.30;;;;;;8336104;28;20297;-50
2022/03/04 02:32:51;;;;;;;;;;;16.50;31.30;;;;;;8336443;28;20339;-52
2022/03/04 02:36:52;;;;;;;;;;;16.50;31.20;;;;;;8336192;28;20028;-47
2022/03/04 02:40:52;;;;;;;;;;;16.50;31.30;;;;;;8335698;28;20385;-51
2022/03/04 02:44:52;;;;;;;;;;;16.50;31.20;;;;;;8336085;28;20354;-51
2022/03/04 02:48:53;;;;;;;;;;;16.50;31.20;;;;;;8335793;28;19944;-49
2022/03/04 02:52:54;;;;;;;;;;;16.50;31.30;;;;;;8335430;28;19954;-49
2022/03/04 02:56:54;;;;;;;;;;;16.50;31.20;;;;;;8335516;28;19925;-50
2022/03/04 03:00:55;;;;;;;;;;;16.50;31.30;;;;;;8335445;28;19960;-50
2022/03/04 03:04:55;;;;;;;;;;;16.50;31.20;;;;;;8335289;28;20374;-49
2022/03/04 03:08:56;;;;;;;;;;;16.40;31.20;;;;;;8335287;28;19917;-52
2022/03/04 03:12:56;;;;;;;;;;;16.40;31.20;;;;;;8335284;28;19992;-55
2022/03/04 03:16:56;;;;;;;;;;;16.40;31.30;;;;;;8334425;28;19982;-52
2022/03/04 03:20:57;;;;;;;;;;;16.40;31.20;;;;;;8334855;28;19960;-50
2022/03/04 03:24:57;;;;;;;;;;;16.40;31.20;;;;;;8333913;28;19963;-47
2022/03/04 03:28:58;;;;;;;;;;;16.40;31.20;;;;;;8334631;28;20278;-51
2022/03/04 03:32:58;;;;;;;;;;;16.40;31.20;;;;;;8334627;28;20366;-51
2022/03/04 03:36:59;;;;;;;;;;;16.40;31.20;;;;;;8334334;28;19932;-48
2022/03/04 03:40:59;;;;;;;;;;;16.40;31.20;;;;;;8333949;28;19921;-47
2022/03/04 03:45:00;;;;;;;;;;;16.40;31.20;;;;;;8334308;28;19917;-47
2022/03/04 03:49:00;;;;;;;;;;;16.30;31.20;;;;;;8334315;28;19948;-50
2022/03/04 03:53:01;;;;;;;;;;;16.30;31.10;;;;;;8333629;28;19921;-48
2022/03/04 03:57:01;;;;;;;;;;;16.30;31.10;;;;;;8333696;28;19921;-53
2022/03/04 04:01:02;;;;;;;;;;;16.30;31.10;;;;;;8333710;28;19960;-53
2022/03/04 04:05:03;;;;;;;;;;;16.30;31.10;;;;;;8333442;28;19944;-50
2022/03/04 04:09:04;;;;;;;;;;;16.30;31.10;;;;;;8333500;28;19921;-48
2022/03/04 04:13:04;;;;;;;;;;;16.30;31.10;;;;;;8332248;28;19920;-50
2022/03/04 04:17:05;;;;;;;;;;;16.30;31.10;;;;;;8332754;28;19933;-48
2022/03/04 04:21:06;;;;;;;;;;;16.30;31.10;;;;;;8333211;28;19914;-47
2022/03/04 04:25:08;;;;;;;;;;;16.30;31.20;;;;;;8333172;28;20358;-50
2022/03/04 04:29:08;;;;;;;;;;;16.20;31.10;;;;;;8332423;28;19917;-47
2022/03/04 04:33:09;;;;;;;;;;;16.20;30.80;;;;;;8332724;28;19921;-48
2022/03/04 04:37:09;;;;;;;;;;;16.20;31.10;;;;;;8332229;28;19921;-49
2022/03/04 04:41:10;;;;;;;;;;;16.20;31.10;;;;;;8332026;28;19917;-50
2022/03/04 04:45:11;;;;;;;;;;;16.20;31.10;;;;;;8332587;28;19971;-51
2022/03/04 04:49:11;;;;;;;;;;;16.20;31.10;;;;;;8332294;28;19924;-50
2022/03/04 04:53:12;;;;;;;;;;;16.20;31.10;;;;;;8331478;28;20390;-49
2022/03/04 04:57:12;;;;;;;;;;;16.20;31.10;;;;;;8331938;28;20358;-48
2022/03/04 05:01:13;;;;;;;;;;;16.20;31.10;;;;;;8331952;28;19921;-48
2022/03/04 05:05:13;;;;;;;;;;;16.20;31.10;;;;;;8312054;28;19924;-49
2022/03/04 05:09:14;;;;;;;;;;;16.20;31.10;;;;;;8323059;28;19956;-49
2022/03/04 05:13:15;;;;;;;;;;;16.20;31.60;;;;;;8331451;28;19913;-46
2022/03/04 05:17:15;;;;;;;;;;;16.20;31.10;;;;;;8330611;28;20361;-49
2022/03/04 05:21:16;;;;;;;;;;;16.20;31.10;;;;;;8331273;28;19917;-50
2022/03/04 05:25:16;;;;;;;;;;;16.20;31.20;;;;;;8331010;28;20367;-51
2022/03/04 05:29:17;;;;;;;;;;;16.20;31.10;;;;;;8330530;28;20382;-52
2022/03/04 05:33:17;;;;;;;;;;;16.10;31.10;;;;;;8330751;28;19913;-49
2022/03/04 05:37:17;;;;;;;;;;;16.10;31.10;;;;;;8330797;28;19925;-49
2022/03/04 05:41:18;;;;;;;;;;;16.10;31.10;;;;;;8330424;28;19918;-48
2022/03/04 05:45:18;;;;;;;;;;;16.10;31.10;;;;;;8330710;28;19917;-47
2022/03/04 05:49:19;;;;;;;;;;;16.10;31.10;;;;;;8329969;28;19996;-47
2022/03/04 05:53:19;;;;;;;;;;;16.10;31.10;;;;;;8330046;28;19922;-47
2022/03/04 05:57:20;;;;;;;;;;;16.10;31.10;;;;;;8330233;28;19921;-49
2022/03/04 06:01:20;;;;;;;;;;;16.10;31.00;;;;;;8330557;28;19921;-47
2022/03/04 06:05:21;;;;;;;;;;;16.10;31.10;;;;;;8329802;28;19932;-49
2022/03/04 06:09:27;;;;;;;;;;;16.10;31.00;;;;;;8330384;28;19971;-48
2022/03/04 06:13:28;;;;;;;;;;;16.10;31.10;;;;;;8332408;28;19914;-49
2022/03/04 06:17:28;;;;;;;;;;;16.10;31.10;;;;;;8330307;28;20288;-48
2022/03/04 06:21:29;;;;;;;;;;;16.10;31.00;;;;;;8330514;28;20064;-50
2022/03/04 06:25:29;;;;;;;;;;;16.10;31.00;;;;;;8329623;28;19917;-49
2022/03/04 06:29:30;;;;;;;;;;;16.10;31.00;;;;;;8329874;28;19917;-48
2022/03/04 06:33:30;;;;;;;;;;;16.10;31.10;;;;;;8330072;28;19913;-48
2022/03/04 06:37:31;;;;;;;;;;;16.10;30.90;;;;;;8329221;28;19960;-50
2022/03/04 06:41:31;;;;;;;;;;;16.20;30.80;;;;;;8330108;28;19924;-49
2022/03/04 06:45:32;;;;;;;;;;;16.30;30.60;;;;;;8329508;28;19921;-49
2022/03/04 06:49:32;;;;;;;;;;;16.20;30.60;;;;;;8329320;28;19948;-48
2022/03/04 06:53:33;;;;;;;;;;;16.20;30.60;;;;;;8329842;28;19967;-50
2022/03/04 06:57:34;;;;;;;;;;;16.20;30.70;;;;;;8330421;28;19927;-49
2022/03/04 07:01:35;;;;;;;;;;;16.20;31.30;;;;;;8335345;28;19923;-47
2022/03/04 07:05:36;;;;;;;;;;;16.10;30.80;;;;;;8335379;28;19917;-51
2022/03/04 07:09:36;;;;;;;;;;;16.10;30.80;;;;;;8335152;28;19917;-48
2022/03/04 07:13:37;;;;;;;;;;;16.10;30.80;;;;;;8334768;28;19917;-47
2022/03/04 07:17:38;;;;;;;;;;;16.10;30.90;;;;;;8335051;28;19925;-51
2022/03/04 07:21:38;;;;;;;;;;;16.10;30.80;;;;;;8335365;28;19992;-49
2022/03/04 07:25:39;;;;;;;;;;;16.10;30.90;;;;;;8334201;28;20016;-50
2022/03/04 07:29:39;;;;;;;;;;;16.10;30.90;;;;;;8334586;28;19921;-48
2022/03/04 07:33:40;;;;;;;;;;;16.10;30.80;;;;;;8334722;28;19914;-49
2022/03/04 07:37:41;;;;;;;;;;;16.10;30.90;;;;;;8334027;28;20417;-49
2022/03/04 07:41:41;;;;;;;;;;;16.10;30.90;;;;;;8334638;28;20215;-50
2022/03/04 07:45:42;;;;;;;;;;;16.10;30.90;;;;;;8334286;28;19961;-52
2022/03/04 07:49:42;;;;;;;;;;;16.10;30.90;;;;;;8333277;28;19917;-51
2022/03/04 07:53:43;;;;;;;;;;;16.10;30.90;;;;;;8334295;28;19928;-48
2022/03/04 07:57:43;;;;;;;;;;;16.10;30.90;;;;;;8332233;28;20000;-47
2022/03/04 08:01:44;;;;;;;;;;;16.10;30.80;;;;;;8333373;28;20296;-52
2022/03/04 08:05:44;;;;;;;;;;;16.20;30.80;;;;;;8333710;28;20320;-51
2022/03/04 08:09:45;;;;;;;;;;;16.10;30.80;;;;;;8332776;28;20400;-50
2022/03/04 08:13:45;;;;;;;;;;;16.20;30.80;;;;;;8310739;28;20007;-47
2022/03/04 08:17:46;;;;;;;;;;;16.20;30.80;;;;;;8333326;28;19921;-47
2022/03/04 08:21:47;;;;;;;;;;;16.20;31.30;;;;;;8333182;28;19917;-49
2022/03/04 08:25:49;;;;;;;;;;;16.20;30.80;;;;;;8330479;28;20019;-49
2022/03/04 08:29:50;;;;;;;;;;;16.20;30.70;;;;;;8331787;28;19917;-50
2022/03/04 08:33:50;;;;;;;;;;;16.20;30.70;;;;;;8332477;28;20067;-47
2022/03/04 08:37:52;;;;;;;;;;;16.20;30.70;;;;;;8332053;28;20308;-51
2022/03/04 08:41:52;;;;;;;;;;;16.20;30.70;;;;;;8332828;28;19924;-48
2022/03/04 08:45:53;;;;;;;;;;;16.20;30.80;;;;;;8332257;28;19982;-52
2022/03/04 08:49:53;;;;;;;;;;;16.20;30.70;;;;;;8331743;28;19998;-50
2022/03/04 08:53:54;;;;;;;;;;;16.20;30.70;;;;;;8331932;28;19929;-49
2022/03/04 08:57:54;;;;;;;;;;;16.20;30.70;;;;;;8331990;28;19925;-52
2022/03/04 09:01:56;;;;;;;;;;;16.20;30.60;;;;;;8330420;28;19913;-48
2022/03/04 09:05:57;;;;;;;;;;;16.30;30.70;;;;;;8331492;28;19944;-49
2022/03/04 09:09:57;;;;;;;;;;;16.30;30.80;;;;;;8331745;28;19924;-51
2022/03/04 09:13:57;;;;;;;;;;;16.30;30.70;;;;;;8330980;28;19924;-50
2022/03/04 09:17:58;;;;;;;;;;;16.30;30.80;;;;;;8331543;28;19922;-48
2022/03/04 09:21:59;;;;;;;;;;;16.30;30.80;;;;;;8330656;28;19914;-47
2022/03/04 09:25:59;;;;;;;;;;;16.30;30.80;;;;;;8330664;28;20353;-49
2022/03/04 09:29:59;;;;;;;;;;;16.30;30.70;;;;;;8331264;28;20036;-49
2022/03/04 09:34:00;;;;;;;;;;;16.30;30.70;;;;;;8330898;28;19917;-50
2022/03/04 09:38:00;;;;;;;;;;;16.30;30.70;;;;;;8330754;28;19925;-50
2022/03/04 09:42:01;;;;;;;;;;;16.40;30.70;;;;;;8330872;28;19956;-51
2022/03/04 09:46:01;;;;;;;;;;;16.40;30.70;;;;;;8330829;28;19920;-50
2022/03/04 09:50:03;;;;;;;;;;;16.40;30.70;;;;;;8330004;28;19921;-49
2022/03/04 09:54:03;;;;;;;;;;;16.40;30.70;;;;;;8330471;28;19925;-50
2022/03/04 09:58:11;;;;;;;;;;;16.40;30.60;;;;;;8329467;28;19956;-54
2022/03/04 10:02:12;;;;;;;;;;;16.40;30.70;;;;;;8329810;28;19923;-52
2022/03/04 10:06:13;;;;;;;;;;;16.40;30.70;;;;;;8330091;28;19943;-51
2022/03/04 10:10:17;;;;;;;;;;;16.40;30.70;;;;;;8330102;28;19929;-52
2022/03/04 10:14:17;;;;;;;;;;;16.40;30.70;;;;;;8329566;28;19917;-52
2022/03/04 10:18:24;;;;;;;;;;;16.40;30.80;;;;;;8330191;28;19917;-47
2022/03/04 10:22:35;;;;;;;;;;;16.50;30.70;;;;;;8330234;28;19917;-50
2022/03/04 10:26:35;;;;;;;;;;;16.50;30.70;;;;;;8329820;28;19924;-53
2022/03/04 10:30:36;;;;;;;;;;;16.50;30.70;;;;;;8329946;28;19923;-48
2022/03/04 10:35:06;;;;;;;;;;;16.50;30.70;;;;;;8333796;28;19928;-50
2022/03/04 10:39:08;;;;;;;;;;;16.50;30.60;;;;;;8322686;28;19918;-49
2022/03/04 10:43:09;;;;;;;;;;;16.50;30.50;;;;;;8336588;28;19917;-50
2022/03/04 10:47:10;;;;;;;;;;;16.50;30.50;;;;;;8335640;28;20388;-47
2022/03/04 10:51:10;;;;;;;;;;;16.60;30.50;;;;;;8336071;28;20016;-47
2022/03/04 10:55:11;;;;;;;;;;;16.60;30.50;;;;;;8335357;28;20016;-47
2022/03/04 10:59:11;;;;;;;;;;;16.60;30.50;;;;;;8335384;28;19931;-51
2022/03/04 11:03:31;;;;;;;;;;;16.60;30.50;;;;;;8336008;28;19929;-48
2022/03/04 11:07:31;;;;;;;;;;;16.60;30.50;;;;;;8334030;28;19956;-50
2022/03/04 11:11:32;;;;;;;;;;;16.60;30.50;;;;;;8335330;28;19917;-50
2022/03/04 11:15:33;;;;;;;;;;;16.60;30.50;;;;;;8335022;28;19933;-49
2022/03/04 11:19:34;;;;;;;;;;;16.60;30.40;;;;;;8334740;28;19921;-47
2022/03/04 11:23:35;;;;;;;;;;;16.70;30.50;;;;;;8335138;28;20361;-49
2022/03/04 11:27:41;;;;;;;;;;;16.70;30.50;;;;;;8334662;28;19921;-51
2022/03/04 11:31:41;;;;;;;;;;;16.70;30.50;;;;;;8334419;28;19959;-51
2022/03/04 11:35:42;;;;;;;;;;;16.70;30.50;;;;;;8334591;28;19925;-50
2022/03/04 11:40:01;;;;;;;;;;;16.70;30.50;;;;;;8334582;28;19921;-51
2022/03/04 11:44:17;;;;;;;;;;;16.70;30.40;;;;;;8332905;28;19917;-50
2022/03/04 11:48:20;;;;;;;;;;;16.70;30.50;;;;;;8334683;28;19936;-51
2022/03/04 11:52:26;;;;;;;;;;;16.80;30.50;;;;;;8334137;28;19924;-48
2022/03/04 11:56:26;;;;;;;;;;;16.80;30.50;;;;;;8333881;28;19932;-47
2022/03/04 12:00:28;;;;;;;;;;;16.80;30.50;;;;;;8333552;28;20009;-49
2022/03/04 12:04:34;;;;;;;;;;;16.80;30.60;;;;;;8333335;28;19924;-50
2022/03/04 12:08:39;;;;;;;;;;;16.80;30.60;;;;;;8333728;28;19913;-47
2022/03/04 12:12:42;;;;;;;;;;;16.80;30.50;;;;;;8333488;28;20262;-52
2022/03/04 12:16:47;;;;;;;;;;;16.80;30.40;;;;;;8332635;28;20145;-47
2022/03/04 12:20:47;;;;;;;;;;;16.90;30.50;;;;;;8332984;28;20214;-48
2022/03/04 12:25:06;;;;;;;;;;;16.90;30.50;;;;;;8333236;28;19917;-50
2022/03/04 12:29:08;;;;;;;;;;;16.90;30.50;;;;;;8332148;28;19913;-52
2022/03/04 12:33:10;;;;;;;;;;;16.90;30.50;;;;;;8333027;28;19917;-47
2022/03/04 12:37:14;;;;;;;;;;;16.90;30.50;;;;;;8332789;28;19929;-48
2022/03/04 12:41:18;;;;;;;;;;;16.90;30.40;;;;;;8332373;28;20293;-49
2022/03/04 12:45:18;;;;;;;;;;;16.90;30.40;;;;;;8332614;28;19967;-48
2022/03/04 12:49:25;;;;;;;;;;;16.90;30.40;;;;;;8332418;28;19913;-52
2022/03/04 12:53:30;;;;;;;;;;;16.90;30.50;;;;;;8331860;28;20365;-51
2022/03/04 12:57:30;;;;;;;;;;;16.90;30.40;;;;;;8331704;28;20055;-51
2022/03/04 13:01:31;;;;;;;;;;;17.00;30.40;;;;;;8331427;28;19913;-49
2022/03/04 13:05:44;;;;;;;;;;;17.00;30.50;;;;;;8331962;28;19913;-49
2022/03/04 13:09:47;;;;;;;;;;;16.90;30.40;;;;;;8331735;28;19971;-52
2022/03/04 13:13:52;;;;;;;;;;;17.00;30.40;;;;;;8331174;28;20031;-48
2022/03/04 13:17:53;;;;;;;;;;;17.00;30.50;;;;;;8338518;28;20183;-49
2022/03/04 13:22:03;;;;;;;;;;;17.00;30.40;;;;;;8331182;28;19917;-51
2022/03/04 13:26:09;;;;;;;;;;;17.00;30.30;;;;;;8330637;28;19996;-49
2022/03/04 13:30:10;;;;;;;;;;;17.00;30.90;;;;;;8337215;28;20000;-48
2022/03/04 13:34:12;;;;;;;;;;;17.00;30.40;;;;;;8331258;28;19913;-49
2022/03/04 13:38:22;;;;;;;;;;;17.00;30.30;;;;;;8330778;28;19925;-47
2022/03/04 13:42:24;;;;;;;;;;;17.00;30.40;;;;;;8330942;28;20232;-50
2022/03/04 13:46:27;;;;;;;;;;;17.00;30.30;;;;;;8329332;28;19981;-52
2022/03/04 13:50:28;;;;;;;;;;;17.00;30.30;;;;;;8330494;28;19971;-51
2022/03/04 13:54:48;;;;;;;;;;;17.10;30.30;;;;;;8330732;28;20266;-52
2022/03/04 13:58:56;;;;;;;;;;;17.10;30.30;;;;;;8330130;28;19921;-52
2022/03/04 14:03:02;;;;;;;;;;;17.00;30.20;;;;;;8329880;28;19945;-50
2022/03/04 14:07:03;;;;;;;;;;;17.00;30.20;;;;;;8329651;28;19925;-50
2022/03/04 14:11:04;;;;;;;;;;;17.00;30.20;;;;;;8329816;28;20029;-52
2022/03/04 14:15:05;;;;;;;;;;;17.00;30.20;;;;;;8330461;28;19927;-49
2022/03/04 14:19:06;;;;;;;;;;;17.10;30.20;;;;;;8330142;28;20356;-50
2022/03/04 14:23:07;;;;;;;;;;;17.10;30.30;;;;;;8329653;28;19924;-47
2022/03/04 14:27:07;;;;;;;;;;;17.10;30.20;;;;;;8329849;28;20401;-47
2022/03/04 14:31:10;;;;;;;;;;;17.10;30.20;;;;;;8329923;28;19922;-49
2022/03/04 14:35:10;;;;;;;;;;;17.10;30.20;;;;;;8329136;28;19996;-48
2022/03/04 14:39:11;;;;;;;;;;;17.10;30.20;;;;;;8330207;28;19929;-50
2022/03/04 14:43:11;;;;;;;;;;;17.10;30.20;;;;;;8329802;28;20415;-49
2022/03/04 14:47:12;;;;;;;;;;;17.10;30.20;;;;;;8329187;28;20429;-51
2022/03/04 14:51:12;;;;;;;;;;;17.10;30.20;;;;;;8329474;28;19928;-52
2022/03/04 14:55:13;;;;;;;;;;;17.10;30.10;;;;;;8329446;28;19937;-49
2022/03/04 14:59:13;;;;;;;;;;;17.10;30.20;;;;;;8329140;28;20038;-51
2022/03/04 15:03:14;;;;;;;;;;;17.10;30.10;;;;;;8329549;28;19986;-49
2022/03/04 15:07:14;;;;;;;;;;;17.20;30.10;;;;;;8329724;28;20384;-48
2022/03/04 15:11:15;;;;;;;;;;;17.10;30.10;;;;;;8329070;28;20412;-51
2022/03/04 15:15:17;;;;;;;;;;;17.20;30.20;;;;;;8329605;28;19925;-49
2022/03/04 15:19:17;;;;;;;;;;;17.20;30.10;;;;;;8329628;28;20004;-50
2022/03/04 15:23:18;;;;;;;;;;;17.20;30.10;;;;;;8334615;28;19918;-49
2022/03/04 15:27:18;;;;;;;;;;;17.20;30.10;;;;;;8334778;28;19918;-49
2022/03/04 15:31:19;;;;;;;;;;;17.20;30.00;;;;;;8334877;28;20356;-52
2022/03/04 15:35:19;;;;;;;;;;;17.10;30.10;;;;;;8334078;28;19948;-50
2022/03/04 15:39:19;;;;;;;;;;;17.20;30.00;;;;;;8334463;28;19917;-48
2022/03/04 15:43:20;;;;;;;;;;;17.20;30.00;;;;;;8334337;28;19913;-46
2022/03/04 15:47:20;;;;;;;;;;;17.10;30.00;;;;;;8333612;28;20344;-49
2022/03/04 15:51:21;;;;;;;;;;;17.10;30.00;;;;;;8334176;28;19969;-50
2022/03/04 15:55:22;;;;;;;;;;;17.20;30.00;;;;;;8334038;28;19925;-48
2022/03/04 15:59:23;;;;;;;;;;;17.10;30.00;;;;;;8333530;28;19941;-51
2022/03/04 16:03:24;;;;;;;;;;;17.20;30.00;;;;;;8333716;28;19921;-51
2022/03/04 16:07:24;;;;;;;;;;;17.20;30.00;;;;;;8333832;28;19936;-48
2022/03/04 16:11:25;;;;;;;;;;;17.20;29.90;;;;;;8333127;28;20012;-51
2022/03/04 16:15:26;;;;;;;;;;;17.20;30.00;;;;;;8333757;28;19921;-50
2022/03/04 16:19:28;;;;;;;;;;;17.20;30.00;;;;;;8332838;28;19917;-48
2022/03/04 16:23:28;;;;;;;;;;;17.20;30.00;;;;;;8333544;28;19917;-52
2022/03/04 16:27:29;;;;;;;;;;;17.10;30.00;;;;;;8333124;28;20016;-49
2022/03/04 16:31:29;;;;;;;;;;;17.20;30.00;;;;;;8332163;28;19917;-51
2022/03/04 16:35:31;;;;;;;;;;;17.10;30.00;;;;;;8332851;28;19949;-53
2022/03/04 16:39:32;;;;;;;;;;;17.20;30.00;;;;;;8332592;28;20289;-50
2022/03/04 16:43:32;;;;;;;;;;;17.20;30.00;;;;;;8331798;28;19913;-48
2022/03/04 16:47:33;;;;;;;;;;;17.10;30.00;;;;;;8332662;28;20495;-51
2022/03/04 16:51:34;;;;;;;;;;;17.10;30.00;;;;;;8332039;28;20369;-50
2022/03/04 16:55:34;;;;;;;;;;;17.10;30.00;;;;;;8331659;28;19978;-47
2022/03/04 16:59:35;;;;;;;;;;;17.10;30.00;;;;;;8332129;28;19917;-50
2022/03/04 17:03:37;;;;;;;;;;;17.10;30.00;;;;;;8317746;28;19924;-50
2022/03/04 17:07:37;;;;;;;;;;;17.10;30.00;;;;;;8326301;28;19913;-53
2022/03/04 17:11:38;;;;;;;;;;;17.10;30.00;;;;;;8331536;28;19921;-49
2022/03/04 17:15:39;;;;;;;;;;;17.10;30.00;;;;;;8331931;28;19979;-50
2022/03/04 17:19:41;;;;;;;;;;;17.10;30.00;;;;;;8330998;28;19925;-53
2022/03/04 17:23:41;;;;;;;;;;;17.10;30.00;;;;;;8331426;28;19924;-50
2022/03/04 17:27:41;;;;;;;;;;;17.10;30.00;;;;;;8331137;28;19944;-50
2022/03/04 17:31:42;;;;;;;;;;;17.10;30.00;;;;;;8330704;28;19970;-53
2022/03/04 17:35:43;;;;;;;;;;;17.10;30.00;;;;;;8331323;28;20029;-52
2022/03/04 17:39:44;;;;;;;;;;;17.10;30.00;;;;;;8331165;28;19925;-52
2022/03/04 17:43:45;;;;;;;;;;;17.10;30.00;;;;;;8329577;28;19936;-49
2022/03/04 17:47:45;;;;;;;;;;;17.10;30.00;;;;;;8330813;28;20358;-48
2022/03/04 17:51:46;;;;;;;;;;;17.10;30.00;;;;;;8330654;28;19924;-52
2022/03/04 17:55:46;;;;;;;;;;;17.10;30.00;;;;;;8330117;28;19932;-48
2022/03/04 17:59:47;;;;;;;;;;;17.10;30.00;;;;;;8330692;28;20019;-51
2022/03/04 18:03:48;;;;;;;;;;;17.10;30.00;;;;;;8330128;28;19917;-52
2022/03/04 18:07:49;;;;;;;;;;;17.10;30.00;;;;;;8329773;28;20016;-50
2022/03/04 18:11:50;;;;;;;;;;;17.10;30.00;;;;;;8330048;28;19959;-52
2022/03/04 18:15:50;;;;;;;;;;;17.10;30.00;;;;;;8330225;28;20320;-48
2022/03/04 18:19:51;;;;;;;;;;;17.00;30.00;;;;;;8329755;28;19917;-49
2022/03/04 18:23:51;;;;;;;;;;;17.00;30.00;;;;;;8330174;28;20357;-51
2022/03/04 18:27:52;;;;;;;;;;;17.00;29.90;;;;;;8330050;28;19960;-51
2022/03/04 18:31:52;;;;;;;;;;;17.00;30.00;;;;;;8329609;28;19917;-49
2022/03/04 18:35:53;;;;;;;;;;;17.00;30.00;;;;;;8330065;28;19929;-49
2022/03/04 18:44:12;;;;;;;;;;;17.00;30.00;;;;;;8329163;28;19972;-52
2022/03/04 18:48:14;;;;;;;;;;;16.90;29.90;;;;;;8329842;28;19921;-53
2022/03/04 18:52:14;;;;;;;;;;;17.00;30.00;;;;;;8329544;28;20002;-50
2022/03/04 18:56:14;;;;;;;;;;;17.00;30.00;;;;;;8334548;28;19921;-51
2022/03/04 19:00:15;;;;;;;;;;;17.00;30.40;;;;;;8336042;28;19921;-49
2022/03/04 19:04:17;;;;;;;;;;;17.00;29.90;;;;;;8335428;28;19924;-49
2022/03/04 19:08:18;;;;;;;;;;;17.00;30.00;;;;;;8334913;28;20313;-48
2022/03/04 19:12:18;;;;;;;;;;;17.00;30.00;;;;;;8335290;28;19972;-49
2022/03/04 19:16:18;;;;;;;;;;;17.00;29.90;;;;;;8352134;28;19951;-50
2022/03/04 19:20:20;;;;;;;;;;;17.00;30.00;;;;;;8338664;28;20421;-51
2022/03/04 19:24:21;;;;;;;;;;;16.90;29.90;;;;;;8335238;28;20427;-50
2022/03/04 19:28:21;;;;;;;;;;;16.90;29.90;;;;;;8334924;28;19917;-51
2022/03/04 19:32:21;;;;;;;;;;;16.90;30.00;;;;;;8334250;28;19921;-49
2022/03/04 19:36:22;;;;;;;;;;;16.90;29.90;;;;;;8334902;28;19963;-51
2022/03/04 19:40:23;;;;;;;;;;;16.90;29.90;;;;;;8334504;28;19953;-52
2022/03/04 19:44:24;;;;;;;;;;;16.90;29.90;;;;;;8333927;28;20012;-50
2022/03/04 19:48:26;;;;;;;;;;;16.90;29.90;;;;;;8334532;28;19918;-50
2022/03/04 19:52:27;;;;;;;;;;;16.90;29.80;;;;;;8333966;28;19920;-51
2022/03/04 19:56:27;;;;;;;;;;;16.90;29.90;;;;;;8334022;28;20293;-49
2022/03/04 20:00:27;;;;;;;;;;;16.90;29.80;;;;;;8334162;28;19917;-50
2022/03/04 20:04:28;;;;;;;;;;;16.90;29.90;;;;;;8332146;28;19917;-50
2022/03/04 20:08:28;;;;;;;;;;;16.90;29.90;;;;;;8333120;28;19918;-52
2022/03/04 20:12:29;;;;;;;;;;;16.90;29.80;;;;;;8333573;28;20003;-52
2022/03/04 20:16:30;;;;;;;;;;;16.90;29.80;;;;;;8333314;28;19925;-53
2022/03/04 20:20:30;;;;;;;;;;;16.90;29.80;;;;;;8333320;28;19925;-53
2022/03/04 20:24:36;;;;;;;;;;;16.80;29.80;;;;;;8333375;28;19952;-53
2022/03/04 20:28:37;;;;;;;;;;;16.80;29.90;;;;;;8333074;28;19967;-52
2022/03/04 20:32:37;;;;;;;;;;;16.90;29.90;;;;;;8332896;28;19921;-49
2022/03/04 20:36:38;;;;;;;;;;;16.80;29.80;;;;;;8333039;28;19947;-49
2022/03/04 20:40:38;;;;;;;;;;;16.80;29.80;;;;;;8332154;28;19927;-51
2022/03/04 20:44:41;;;;;;;;;;;16.80;29.80;;;;;;8332610;28;19917;-49
2022/03/04 20:48:41;;;;;;;;;;;16.80;29.80;;;;;;8332448;28;19921;-52
2022/03/04 20:52:42;;;;;;;;;;;16.80;29.80;;;;;;8301694;28;19922;-49
2022/03/04 20:56:43;;;;;;;;;;;16.80;29.80;;;;;;8310114;28;19956;-49
2022/03/04 21:00:43;;;;;;;;;;;16.80;29.80;;;;;;8332070;28;20330;-50
2022/03/04 21:04:44;;;;;;;;;;;16.80;29.80;;;;;;8331454;28;19928;-50
2022/03/04 21:08:44;;;;;;;;;;;16.80;29.80;;;;;;8331833;28;19917;-50
2022/03/04 21:12:45;;;;;;;;;;;16.80;29.80;;;;;;8331795;28;19920;-52
2022/03/04 21:16:45;;;;;;;;;;;16.80;29.80;;;;;;8331117;28;19963;-49
2022/03/04 21:20:46;;;;;;;;;;;16.80;29.80;;;;;;8331326;28;20258;-51
2022/03/04 21:24:46;;;;;;;;;;;16.80;29.80;;;;;;8331200;28;20403;-48
2022/03/04 21:28:47;;;;;;;;;;;16.70;29.80;;;;;;8330614;28;19917;-50
2022/03/04 21:32:47;;;;;;;;;;;16.80;29.80;;;;;;8331598;28;19928;-52
2022/03/04 21:36:48;;;;;;;;;;;16.70;29.70;;;;;;8330881;28;19929;-49
2022/03/04 21:40:48;;;;;;;;;;;16.70;29.70;;;;;;8330520;28;19983;-49
2022/03/04 21:44:49;;;;;;;;;;;16.70;29.70;;;;;;8330672;28;19917;-51
2022/03/04 21:48:49;;;;;;;;;;;16.70;29.70;;;;;;8330822;28;20003;-49
2022/03/04 21:52:49;;;;;;;;;;;16.70;29.70;;;;;;8330443;28;19928;-50
2022/03/04 21:56:50;;;;;;;;;;;16.70;29.70;;;;;;8330754;28;19932;-52
2022/03/04 22:00:52;;;;;;;;;;;16.70;29.70;;;;;;8329644;28;21205;-49
2022/03/04 22:04:53;;;;;;;;;;;16.70;29.70;;;;;;8329659;28;19917;-51
2022/03/04 22:09:00;;;;;;;;;;;16.70;29.70;;;;;;8330206;28;20390;-49
2022/03/04 22:13:01;;;;;;;;;;;16.70;29.70;;;;;;8334510;28;19940;-53
2022/03/04 22:17:01;;;;;;;;;;;16.60;29.70;;;;;;8329681;28;19925;-49
2022/03/04 22:21:02;;;;;;;;;;;16.60;29.70;;;;;;8330366;28;19917;-52
2022/03/04 22:25:03;;;;;;;;;;;16.60;29.60;;;;;;8329992;28;19995;-52
2022/03/04 22:29:04;;;;;;;;;;;16.60;29.70;;;;;;8331496;28;19982;-51
2022/03/04 22:33:04;;;;;;;;;;;16.60;29.70;;;;;;8321640;28;19914;-53
2022/03/04 22:37:05;;;;;;;;;;;16.60;29.70;;;;;;8325576;28;19967;-51
2022/03/04 22:41:05;;;;;;;;;;;16.60;29.70;;;;;;8336165;28;20069;-49
2022/03/04 22:45:06;;;;;;;;;;;16.60;29.70;;;;;;8336342;28;19917;-53
2022/03/04 22:49:06;;;;;;;;;;;16.60;29.70;;;;;;8336298;28;19976;-53
2022/03/04 22:53:07;;;;;;;;;;;16.60;29.70;;;;;;8335910;28;20428;-52
2022/03/04 22:57:07;;;;;;;;;;;16.50;29.60;;;;;;8335909;28;19929;-53
2022/03/04 23:01:08;;;;;;;;;;;16.50;29.70;;;;;;8335092;28;20004;-48
2022/03/04 23:09:27;;;;;;;;;;;16.50;29.70;;;;;;8311005;28;20441;-49
2022/03/04 23:13:28;;;;;;;;;;;16.50;29.70;;;;;;8335334;28;19917;-50
2022/03/04 23:17:28;;;;;;;;;;;16.50;29.70;;;;;;8335206;28;20385;-53
2022/03/04 23:21:29;;;;;;;;;;;16.50;29.70;;;;;;8335169;28;20336;-48
2022/03/04 23:25:31;;;;;;;;;;;16.50;29.70;;;;;;8334672;28;19921;-52
2022/03/04 23:29:31;;;;;;;;;;;16.50;29.70;;;;;;8334823;28;19921;-49